createdAt,value
2023-10-11T00:00:09.908Z,3.42
2023-10-11T00:02:36.451Z,4.55
2023-10-11T00:05:02.996Z,4.63
2023-10-11T00:07:29.507Z,4.28
2023-10-11T00:09:55.948Z,3.30
2023-10-11T00:12:22.424Z,4.25
2023-10-11T00:14:48.864Z,4.72
2023-10-11T00:17:15.298Z,4.45
2023-10-11T00:19:41.840Z,4.30
2023-10-11T00:22:08.378Z,3.83
2023-10-11T00:24:34.843Z,4.15
2023-10-11T00:27:01.404Z,3.97
2023-10-11T00:29:28.009Z,2.85
2023-10-11T00:31:54.496Z,3.72
2023-10-11T00:34:21.020Z,6.10
2023-10-11T00:36:47.546Z,4.15
2023-10-11T00:39:14.001Z,2.72
2023-10-11T00:41:40.598Z,4.68
2023-10-11T00:44:07.117Z,3.42
2023-10-11T00:46:33.631Z,4.13
2023-10-11T00:49:00.098Z,4.25
2023-10-11T00:51:26.561Z,3.45
2023-10-11T00:53:53.042Z,4.03
2023-10-11T00:56:19.494Z,4.57
2023-10-11T00:58:45.992Z,4.32
2023-10-11T01:01:12.483Z,5.03
2023-10-11T01:03:39.128Z,3.30
2023-10-11T01:06:05.720Z,3.90
2023-10-11T01:08:32.268Z,3.72
2023-10-11T01:10:58.711Z,4.30
2023-10-11T01:13:25.180Z,4.07
2023-10-11T01:15:51.685Z,4.20
2023-10-11T01:18:18.244Z,3.03
2023-10-11T01:20:44.783Z,5.03
2023-10-11T01:23:11.230Z,4.65
2023-10-11T01:25:37.665Z,3.67
2023-10-11T01:28:04.159Z,3.28
2023-10-11T01:30:30.602Z,3.45
2023-10-11T01:32:57.129Z,4.40
2023-10-11T01:35:23.663Z,3.30
2023-10-11T01:37:50.213Z,4.07
2023-10-11T01:40:16.723Z,3.38
2023-10-11T01:42:43.195Z,3.65
2023-10-11T01:45:09.832Z,3.35
2023-10-11T01:47:36.454Z,3.83
2023-10-11T01:50:02.991Z,3.80
2023-10-11T01:52:29.471Z,4.20
2023-10-11T01:54:55.907Z,4.90
2023-10-11T01:57:22.411Z,4.00
2023-10-11T01:59:48.930Z,5.68
2023-10-11T02:02:15.436Z,5.38
2023-10-11T02:04:41.867Z,4.40
2023-10-11T02:07:08.321Z,3.90
2023-10-11T02:09:34.765Z,4.28
2023-10-11T02:12:01.261Z,3.55
2023-10-11T02:14:27.803Z,3.78
2023-10-11T02:16:54.329Z,3.70
2023-10-11T02:19:20.791Z,3.38
2023-10-11T02:21:47.233Z,3.35
2023-10-11T02:24:13.714Z,3.53
2023-10-11T02:26:40.199Z,4.07
2023-10-11T02:29:06.697Z,4.38
2023-10-11T02:31:33.327Z,3.47
2023-10-11T02:33:59.777Z,4.22
2023-10-11T02:36:26.204Z,4.90
2023-10-11T02:38:52.661Z,3.40
2023-10-11T02:41:19.157Z,4.20
2023-10-11T02:43:45.634Z,6.05
2023-10-11T02:46:12.151Z,4.15
2023-10-11T02:48:38.738Z,3.13
2023-10-11T02:51:05.286Z,4.70
2023-10-11T02:53:31.747Z,3.80
2023-10-11T02:55:58.192Z,4.10
2023-10-11T02:58:24.614Z,3.80
2023-10-11T03:00:55.988Z,4.07
2023-10-11T03:03:27.632Z,3.83
2023-10-11T03:05:54.162Z,3.35
2023-10-11T03:08:20.665Z,4.10
2023-10-11T03:10:47.111Z,3.90
2023-10-11T03:13:13.600Z,4.05
2023-10-11T03:15:40.148Z,3.88
2023-10-11T03:18:06.789Z,3.78
2023-10-11T03:20:33.316Z,4.57
2023-10-11T03:22:59.815Z,4.13
2023-10-11T03:25:26.308Z,5.53
2023-10-11T03:27:52.732Z,3.85
2023-10-11T03:30:19.194Z,3.65
2023-10-11T03:32:45.856Z,5.28
2023-10-11T03:35:12.483Z,4.47
2023-10-11T03:37:39.031Z,4.45
2023-10-11T03:40:05.532Z,4.75
2023-10-11T03:42:32.031Z,5.50
2023-10-11T03:44:58.521Z,4.60
2023-10-11T03:47:25.045Z,4.57
2023-10-11T03:49:51.610Z,5.00
2023-10-11T03:52:18.099Z,5.22
2023-10-11T03:54:44.545Z,4.22
2023-10-11T03:57:10.988Z,5.07
2023-10-11T03:59:37.435Z,4.38
2023-10-11T04:02:03.895Z,4.45
2023-10-11T04:04:30.515Z,4.20
2023-10-11T04:06:57.016Z,3.75
2023-10-11T04:09:23.746Z,5.80
2023-10-11T04:11:50.446Z,5.03
2023-10-11T04:14:16.890Z,5.00
2023-10-11T04:16:43.348Z,5.47
2023-10-11T04:19:09.863Z,3.97
2023-10-11T04:21:36.394Z,4.20
2023-10-11T04:24:02.883Z,4.57
2023-10-11T04:26:29.377Z,4.90
2023-10-11T04:28:55.839Z,4.20
2023-10-11T04:31:23.553Z,3.95
2023-10-11T04:33:50.186Z,3.95
2023-10-11T04:36:16.707Z,5.63
2023-10-11T04:38:43.219Z,4.75
2023-10-11T04:41:09.657Z,3.70
2023-10-11T04:43:36.139Z,4.32
2023-10-11T04:46:02.682Z,5.68
2023-10-11T04:48:29.278Z,3.75
2023-10-11T04:50:55.842Z,4.63
2023-10-11T04:53:22.410Z,4.75
2023-10-11T04:55:48.845Z,4.45
2023-10-11T04:58:16.350Z,4.07
2023-10-11T05:00:42.960Z,5.60
2023-10-11T05:03:09.639Z,5.82
2023-10-11T05:05:36.231Z,6.50
2023-10-11T05:08:02.648Z,4.55
2023-10-11T05:10:29.140Z,5.75
2023-10-11T05:12:55.607Z,5.55
2023-10-11T05:15:22.216Z,5.50
2023-10-11T05:17:48.756Z,4.20
2023-10-11T05:20:17.408Z,5.82
2023-10-11T05:22:43.851Z,4.65
2023-10-11T05:25:10.315Z,4.22
2023-10-11T05:27:36.744Z,4.70
2023-10-11T05:30:03.264Z,6.40
2023-10-11T05:32:29.856Z,4.85
2023-10-11T05:34:56.333Z,6.05
2023-10-11T05:37:22.804Z,3.88
2023-10-11T05:39:49.283Z,4.35
2023-10-11T05:42:15.858Z,4.93
2023-10-11T05:44:42.327Z,7.80
2023-10-11T05:47:08.799Z,4.82
2023-10-11T05:49:35.266Z,4.80
2023-10-11T05:52:01.703Z,4.47
2023-10-11T05:54:28.134Z,5.38
2023-10-11T05:56:54.658Z,5.65
2023-10-11T05:59:21.162Z,5.80
2023-10-11T06:01:47.664Z,5.20
2023-10-11T06:04:14.213Z,4.38
2023-10-11T06:06:40.860Z,5.95
2023-10-11T06:09:07.385Z,4.90
2023-10-11T06:11:33.826Z,4.93
2023-10-11T06:14:00.311Z,5.68
2023-10-11T06:16:29.445Z,5.78
2023-10-11T06:18:56.374Z,5.05
2023-10-11T06:21:22.913Z,5.40
2023-10-11T06:23:49.449Z,5.93
2023-10-11T06:26:15.985Z,5.60
2023-10-11T06:28:42.409Z,6.65
2023-10-11T06:31:08.842Z,5.18
2023-10-11T06:33:35.406Z,4.95
2023-10-11T06:36:02.026Z,7.43
2023-10-11T06:38:28.465Z,7.25
2023-10-11T06:40:54.911Z,5.10
2023-10-11T06:43:21.378Z,6.10
2023-10-11T06:45:47.870Z,6.43
2023-10-11T06:48:14.481Z,4.88
2023-10-11T06:50:41.132Z,5.55
2023-10-11T06:53:07.597Z,7.70
2023-10-11T06:55:34.025Z,5.70
2023-10-11T06:58:00.506Z,5.38
2023-10-11T07:00:27.117Z,7.13
2023-10-11T07:02:53.796Z,5.72
2023-10-11T07:05:20.633Z,6.55
2023-10-11T07:07:47.091Z,5.57
2023-10-11T07:10:13.632Z,7.53
2023-10-11T07:12:40.214Z,6.93
2023-10-11T07:15:06.791Z,7.75
2023-10-11T07:17:33.456Z,5.03
2023-10-11T07:20:00.036Z,7.47
2023-10-11T07:22:26.484Z,7.80
2023-10-11T07:24:52.919Z,11.25
2023-10-11T07:27:19.397Z,7.30
2023-10-11T07:29:50.581Z,8.63
2023-10-11T07:32:17.704Z,6.90
2023-10-11T07:34:44.148Z,6.80
2023-10-11T07:37:10.629Z,8.43
2023-10-11T07:39:37.104Z,6.10
2023-10-11T07:42:03.653Z,6.57
2023-10-11T07:44:30.168Z,7.57
2023-10-11T07:46:56.598Z,5.63
2023-10-11T07:49:23.009Z,6.85
2023-10-11T07:51:49.463Z,6.60
2023-10-11T07:54:15.947Z,7.22
2023-10-11T07:56:42.416Z,5.65
2023-10-11T07:59:08.844Z,5.93
2023-10-11T08:01:35.339Z,8.88
2023-10-11T08:04:01.952Z,6.53
2023-10-11T08:06:28.545Z,9.13
2023-10-11T08:08:55.001Z,8.18
2023-10-11T08:11:21.497Z,8.35
2023-10-11T08:13:47.968Z,8.23
2023-10-11T08:16:14.559Z,7.25
2023-10-11T08:18:41.104Z,8.05
2023-10-11T08:21:07.635Z,9.98
2023-10-11T08:23:34.140Z,8.50
2023-10-11T08:26:00.712Z,8.32
2023-10-11T08:28:27.193Z,8.52
2023-10-11T08:30:53.675Z,9.02
2023-10-11T08:33:20.260Z,7.35
2023-10-11T08:35:46.720Z,7.30
2023-10-11T08:38:13.181Z,9.35
2023-10-11T08:40:39.662Z,8.18
2023-10-11T08:43:06.145Z,9.80
2023-10-11T08:45:35.156Z,11.48
2023-10-11T08:48:01.837Z,9.43
2023-10-11T08:50:28.392Z,8.77
2023-10-11T08:52:54.888Z,6.57
2023-10-11T08:55:21.483Z,8.88
2023-10-11T08:57:47.969Z,9.05
2023-10-11T09:00:14.485Z,8.57
2023-10-11T09:02:41.119Z,8.90
2023-10-11T09:05:07.861Z,9.98
2023-10-11T09:07:34.661Z,8.98
2023-10-11T09:10:01.183Z,8.60
2023-10-11T09:12:27.758Z,10.60
2023-10-11T09:14:54.325Z,7.53
2023-10-11T09:17:20.765Z,12.05
2023-10-11T09:19:47.229Z,9.95
2023-10-11T09:22:13.662Z,12.30
2023-10-11T09:24:44.673Z,12.60
2023-10-11T09:27:11.729Z,11.23
2023-10-11T09:29:38.268Z,10.82
2023-10-11T09:32:04.773Z,11.73
2023-10-11T09:34:31.393Z,11.35
2023-10-11T09:36:58.014Z,10.30
2023-10-11T09:39:24.560Z,10.85
2023-10-11T09:41:51.081Z,9.20
2023-10-11T09:44:17.777Z,10.75
2023-10-11T09:46:44.487Z,9.50
2023-10-11T09:49:10.966Z,8.02
2023-10-11T09:51:37.617Z,9.55
2023-10-11T09:54:04.114Z,13.60
2023-10-11T09:56:30.569Z,9.02
2023-10-11T09:58:56.982Z,12.60
2023-10-11T10:01:23.516Z,10.18
2023-10-11T10:03:50.057Z,13.85
2023-10-11T10:06:16.613Z,12.55
2023-10-11T10:08:43.062Z,10.68
2023-10-11T10:11:09.521Z,9.90
2023-10-11T10:13:35.996Z,13.05
2023-10-11T10:16:02.527Z,13.73
2023-10-11T10:18:29.177Z,15.85
2023-10-11T10:20:55.786Z,13.07
2023-10-11T10:23:22.226Z,14.75
2023-10-11T10:25:48.793Z,11.07
2023-10-11T10:28:15.342Z,9.27
2023-10-11T10:30:41.789Z,12.60
2023-10-11T10:33:08.388Z,15.57
2023-10-11T10:35:35.029Z,13.70
2023-10-11T10:38:01.479Z,15.43
2023-10-11T10:40:28.289Z,13.85
2023-10-11T10:42:55.133Z,11.57
2023-10-11T10:45:21.692Z,10.70
2023-10-11T10:47:48.227Z,15.48
2023-10-11T10:50:14.720Z,11.35
2023-10-11T10:52:41.189Z,15.25
2023-10-11T10:55:07.883Z,15.88
2023-10-11T10:57:34.364Z,14.15
2023-10-11T11:00:00.895Z,13.10
2023-10-11T11:02:27.358Z,15.38
2023-10-11T11:04:57.008Z,11.82
2023-10-11T11:07:23.827Z,16.15
2023-10-11T11:09:50.331Z,16.40
2023-10-11T11:12:18.920Z,14.52
2023-10-11T11:14:45.809Z,16.98
2023-10-11T11:17:12.316Z,14.80
2023-10-11T11:27:08.873Z,16.35
2023-10-11T11:29:35.575Z,16.75
2023-10-11T11:34:52.684Z,11.50
2023-10-11T11:37:19.192Z,10.38
2023-10-11T11:39:45.679Z,10.80
2023-10-11T11:42:12.164Z,11.38
2023-10-11T11:44:38.668Z,11.05
2023-10-11T11:47:05.142Z,9.23
2023-10-11T11:49:31.636Z,9.20
2023-10-11T11:51:58.079Z,12.27
2023-10-11T11:54:24.616Z,12.35
2023-10-11T11:56:51.120Z,9.82
2023-10-11T11:59:17.634Z,11.98
2023-10-11T12:01:44.086Z,9.18
2023-10-11T12:04:10.654Z,9.32
2023-10-11T12:06:37.207Z,14.20
2023-10-11T12:09:03.861Z,13.35
2023-10-11T12:11:30.561Z,11.35
2023-10-11T12:13:57.097Z,10.80
2023-10-11T12:16:23.625Z,14.20
2023-10-11T12:18:50.077Z,11.07
2023-10-11T12:21:16.561Z,10.88
2023-10-11T12:23:43.066Z,12.23
2023-10-11T12:26:09.490Z,11.88
2023-10-11T12:28:35.951Z,10.75
2023-10-11T12:31:02.569Z,9.05
2023-10-11T12:33:29.223Z,9.38
2023-10-11T12:35:55.820Z,11.15
2023-10-11T12:38:22.291Z,11.27
2023-10-11T12:40:48.745Z,8.95
2023-10-11T12:43:15.223Z,7.97
2023-10-11T12:45:41.747Z,11.93
2023-10-11T12:48:08.609Z,11.52
2023-10-11T12:50:35.195Z,9.65
2023-10-11T12:53:01.620Z,7.85
2023-10-11T12:55:28.032Z,8.93
2023-10-11T12:57:56.934Z,7.10
2023-10-11T13:00:23.447Z,7.40
2023-10-11T13:02:50.055Z,8.93
2023-10-11T13:05:16.629Z,8.48
2023-10-11T13:07:43.102Z,6.28
2023-10-11T13:10:09.534Z,6.10
2023-10-11T13:12:36.072Z,7.60
2023-10-11T13:15:02.650Z,7.50
2023-10-11T13:17:29.268Z,5.38
2023-10-11T13:19:56.026Z,8.55
2023-10-11T13:22:22.481Z,6.82
2023-10-11T13:24:48.998Z,6.63
2023-10-11T13:27:15.528Z,5.82
2023-10-11T13:29:42.027Z,6.13
2023-10-11T13:32:08.457Z,7.28
2023-10-11T13:34:35.076Z,5.78
2023-10-11T13:37:01.653Z,6.38
2023-10-11T13:39:28.278Z,8.15
2023-10-11T13:41:55.015Z,5.93
2023-10-11T13:44:21.498Z,8.40
2023-10-11T13:46:48.100Z,5.10
2023-10-11T13:49:14.640Z,6.68
2023-10-11T13:51:41.129Z,5.25
2023-10-11T13:54:07.717Z,9.32
2023-10-11T13:56:34.194Z,7.57
2023-10-11T13:59:00.676Z,6.20
2023-10-11T14:01:27.146Z,4.18
2023-10-11T14:03:58.259Z,4.93
2023-10-11T14:06:25.249Z,6.80
2023-10-11T14:08:51.719Z,5.00
2023-10-11T14:11:18.141Z,7.22
2023-10-11T14:13:44.580Z,5.57
2023-10-11T14:16:11.045Z,5.78
2023-10-11T14:18:37.510Z,6.05
2023-10-11T14:21:03.976Z,6.53
2023-10-11T14:23:30.433Z,5.72
2023-10-11T14:25:56.857Z,6.85
2023-10-11T14:28:23.272Z,6.35
2023-10-11T14:30:49.771Z,5.90
2023-10-11T14:33:16.502Z,7.35
2023-10-11T14:35:42.995Z,9.63
2023-10-11T14:38:09.432Z,5.57
2023-10-11T14:40:35.861Z,7.30
2023-10-11T14:43:02.351Z,9.07
2023-10-11T14:45:29.059Z,8.82
2023-10-11T14:47:55.682Z,8.30
2023-10-11T14:50:22.143Z,7.43
2023-10-11T14:52:48.641Z,10.77
2023-10-11T14:55:15.086Z,9.45
2023-10-11T14:57:41.634Z,7.75
2023-10-11T15:00:08.243Z,6.65
2023-10-11T15:02:34.809Z,7.63
2023-10-11T15:05:01.325Z,9.63
2023-10-11T15:07:27.750Z,8.70
2023-10-11T15:09:54.233Z,9.13
2023-10-11T15:12:20.752Z,9.35
2023-10-11T15:14:47.318Z,11.45
2023-10-11T15:17:13.754Z,9.35
2023-10-11T15:19:40.245Z,8.82
2023-10-11T15:22:06.655Z,8.57
2023-10-11T15:24:33.137Z,9.10
2023-10-11T15:26:59.590Z,8.45
2023-10-11T15:29:26.115Z,9.30
2023-10-11T15:31:52.586Z,12.70
2023-10-11T15:34:19.283Z,10.02
2023-10-11T15:36:45.855Z,8.63
2023-10-11T15:39:13.101Z,10.32
2023-10-11T15:41:39.585Z,9.95
2023-10-11T15:44:06.150Z,10.18
2023-10-11T15:46:32.653Z,8.68
2023-10-11T15:48:59.409Z,8.80
2023-10-11T15:51:25.917Z,8.90
2023-10-11T15:53:52.364Z,10.43
2023-10-11T15:56:18.841Z,9.55
2023-10-11T15:58:46.599Z,9.90
2023-10-11T16:01:13.160Z,9.20
2023-10-11T16:03:39.729Z,9.23
2023-10-11T16:06:06.335Z,12.57
2023-10-11T16:08:32.930Z,12.20
2023-10-11T16:11:01.850Z,11.63
2023-10-11T16:13:28.283Z,9.57
2023-10-11T16:15:54.722Z,11.85
2023-10-11T16:18:21.173Z,10.43
2023-10-11T16:20:47.651Z,10.60
2023-10-11T16:23:14.163Z,10.40
2023-10-11T16:25:40.791Z,10.40
2023-10-11T16:28:07.383Z,8.13
2023-10-11T16:30:34.012Z,8.93
2023-10-11T16:33:00.620Z,8.98
2023-10-11T16:35:27.290Z,9.20
2023-10-11T16:37:53.711Z,8.55
2023-10-11T16:40:20.202Z,8.65
2023-10-11T16:42:46.762Z,9.30
2023-10-11T16:45:13.291Z,9.95
2023-10-11T16:47:39.843Z,10.05
2023-10-11T16:50:06.413Z,10.70
2023-10-11T16:52:32.963Z,9.85
2023-10-11T16:54:59.539Z,8.80
2023-10-11T16:57:26.049Z,9.95
2023-10-11T16:59:52.568Z,10.15
2023-10-11T17:02:19.036Z,10.00
2023-10-11T17:04:47.913Z,10.00
2023-10-11T17:07:16.254Z,8.70
2023-10-11T17:09:42.822Z,8.90
2023-10-11T17:12:09.354Z,9.95
2023-10-11T17:14:35.803Z,8.82
2023-10-11T17:17:02.277Z,9.20
2023-10-11T17:19:28.752Z,9.02
2023-10-11T17:21:55.184Z,9.95
2023-10-11T17:24:21.797Z,9.52
2023-10-11T17:26:48.402Z,10.30
2023-10-11T17:29:14.879Z,8.05
2023-10-11T17:31:41.392Z,13.48
2023-10-11T17:34:07.842Z,9.32
2023-10-11T17:36:34.353Z,10.48
2023-10-11T17:39:00.888Z,12.60
2023-10-11T17:41:27.377Z,10.60
2023-10-11T17:43:53.860Z,10.18
2023-10-11T17:46:20.366Z,10.13
2023-10-11T17:48:46.964Z,10.82
2023-10-11T17:51:13.433Z,9.73
2023-10-11T17:53:39.877Z,10.80
2023-10-11T17:56:06.503Z,9.77
2023-10-11T17:58:33.003Z,9.88
2023-10-11T18:00:59.515Z,10.25
2023-10-11T18:03:26.146Z,10.20
2023-10-11T18:05:52.651Z,12.13
2023-10-11T18:08:19.150Z,9.98
2023-10-11T18:10:45.764Z,10.60
2023-10-11T18:13:12.236Z,10.73
2023-10-11T18:15:38.684Z,12.15
2023-10-11T18:18:05.241Z,10.13
2023-10-11T18:20:31.753Z,12.45
2023-10-11T18:22:58.226Z,11.85
2023-10-11T18:25:24.753Z,11.43
2023-10-11T18:27:51.277Z,10.40
2023-10-11T18:30:17.774Z,11.48
2023-10-11T18:32:44.208Z,14.00
2023-10-11T18:35:12.278Z,13.40
2023-10-11T18:37:38.744Z,12.07
2023-10-11T18:40:05.258Z,11.80
2023-10-11T18:42:31.698Z,12.23
2023-10-11T18:44:58.172Z,11.43
2023-10-11T18:47:24.685Z,11.00
2023-10-11T18:49:51.159Z,12.60
2023-10-11T18:52:17.656Z,12.30
2023-10-11T18:54:44.159Z,11.07
2023-10-11T18:57:10.658Z,13.68
2023-10-11T18:59:37.100Z,11.30
2023-10-11T19:02:03.530Z,11.27
2023-10-11T19:04:29.970Z,14.05
2023-10-11T19:06:56.531Z,12.27
2023-10-11T19:09:23.115Z,14.75
2023-10-11T19:11:49.542Z,13.15
2023-10-11T19:14:16.005Z,11.82
2023-10-11T19:16:42.559Z,12.30
2023-10-11T19:19:09.095Z,10.57
2023-10-11T19:21:35.594Z,10.75
2023-10-11T19:24:02.065Z,11.77
2023-10-11T19:26:28.600Z,9.63
2023-10-11T19:28:55.868Z,9.25
2023-10-11T19:31:23.520Z,9.38
2023-10-11T19:33:50.101Z,8.98
2023-10-11T19:36:16.627Z,10.82
2023-10-11T19:38:43.082Z,9.05
2023-10-11T19:41:09.602Z,9.43
2023-10-11T19:43:36.010Z,9.23
2023-10-11T19:46:02.486Z,9.73
2023-10-11T19:48:28.993Z,9.40
2023-10-11T19:50:55.551Z,8.35
2023-10-11T19:53:22.010Z,8.88
2023-10-11T19:55:48.442Z,9.25
2023-10-11T19:58:14.947Z,13.18
2023-10-11T20:00:41.515Z,8.70
2023-10-11T20:03:08.118Z,9.55
2023-10-11T20:05:34.586Z,8.55
2023-10-11T20:08:01.020Z,8.23
2023-10-11T20:10:27.456Z,10.27
2023-10-11T20:12:54.012Z,8.77
2023-10-11T20:15:20.570Z,7.57
2023-10-11T20:17:47.078Z,7.25
2023-10-11T20:20:13.596Z,8.43
2023-10-11T20:22:40.225Z,6.82
2023-10-11T20:25:06.692Z,5.95
2023-10-11T20:27:33.217Z,6.30
2023-10-11T20:29:59.684Z,7.72
2023-10-11T20:32:26.183Z,6.72
2023-10-11T20:34:52.671Z,6.22
2023-10-11T20:37:19.135Z,6.68
2023-10-11T20:39:45.630Z,7.20
2023-10-11T20:42:12.157Z,6.50
2023-10-11T20:44:38.729Z,6.57
2023-10-11T20:47:05.190Z,5.80
2023-10-11T20:49:31.607Z,9.20
2023-10-11T20:51:58.026Z,7.28
2023-10-11T20:54:24.541Z,5.40
2023-10-11T20:56:50.990Z,6.55
2023-10-11T20:59:20.294Z,8.15
2023-10-11T21:01:46.897Z,8.65
2023-10-11T21:04:13.435Z,7.82
2023-10-11T21:06:39.994Z,5.35
2023-10-11T21:09:06.520Z,6.88
2023-10-11T21:11:33.001Z,5.93
2023-10-11T21:13:59.419Z,6.93
2023-10-11T21:16:25.878Z,6.95
2023-10-11T21:18:52.473Z,8.30
2023-10-11T21:21:19.219Z,7.40
2023-10-11T21:23:45.819Z,6.70
2023-10-11T21:26:12.334Z,5.15
2023-10-11T21:28:38.774Z,6.07
2023-10-11T21:31:05.283Z,7.72
2023-10-11T21:33:31.752Z,4.82
2023-10-11T21:35:58.238Z,5.80
2023-10-11T21:38:24.729Z,5.10
2023-10-11T21:40:51.184Z,5.75
2023-10-11T21:43:17.624Z,5.43
2023-10-11T21:45:44.123Z,5.53
2023-10-11T21:48:11.245Z,5.45
2023-10-11T21:50:37.863Z,4.80
2023-10-11T21:53:04.280Z,4.75
2023-10-11T21:55:30.753Z,4.85
2023-10-11T21:57:57.238Z,4.78
2023-10-11T22:00:23.693Z,7.47
2023-10-11T22:02:50.724Z,5.00
2023-10-11T22:05:17.282Z,7.60
2023-10-11T22:07:43.742Z,6.63
2023-10-11T22:10:10.224Z,5.20
2023-10-11T22:12:36.699Z,5.30
2023-10-11T22:15:03.204Z,5.95
2023-10-11T22:17:29.649Z,5.22
2023-10-11T22:19:56.142Z,5.65
2023-10-11T22:22:22.570Z,5.55
2023-10-11T22:24:49.024Z,5.72
2023-10-11T22:27:15.567Z,6.22
2023-10-11T22:29:42.049Z,5.03
2023-10-11T22:32:08.590Z,4.85
2023-10-11T22:34:35.221Z,5.30
2023-10-11T22:37:01.773Z,6.03
2023-10-11T22:39:28.225Z,5.40
2023-10-11T22:41:54.757Z,6.35
2023-10-11T22:44:21.199Z,5.05
2023-10-11T22:46:47.757Z,8.00
2023-10-11T22:49:14.307Z,5.07
2023-10-11T22:51:40.805Z,6.07
2023-10-11T22:54:07.471Z,5.78
2023-10-11T22:56:33.901Z,7.63
2023-10-11T22:59:00.328Z,6.10
2023-10-11T23:01:26.815Z,5.85
2023-10-11T23:03:53.440Z,6.63
2023-10-11T23:06:19.980Z,7.55
2023-10-11T23:08:46.445Z,5.63
2023-10-11T23:11:12.919Z,5.75
2023-10-11T23:13:39.465Z,6.15
2023-10-11T23:16:06.021Z,7.18
2023-10-11T23:18:32.638Z,7.20
2023-10-11T23:20:59.556Z,6.43
2023-10-11T23:23:26.364Z,5.00
2023-10-11T23:25:52.831Z,7.68
2023-10-11T23:28:19.314Z,6.18
2023-10-11T23:30:45.869Z,6.28
2023-10-11T23:33:12.384Z,7.47
2023-10-11T23:35:38.864Z,6.43
2023-10-11T23:38:05.277Z,6.30
2023-10-11T23:40:31.728Z,7.15
2023-10-11T23:42:58.345Z,6.65
2023-10-11T23:45:25.034Z,7.88
2023-10-11T23:47:51.560Z,8.20
2023-10-11T23:50:18.061Z,8.00
2023-10-11T23:52:44.553Z,7.15
2023-10-11T23:55:10.972Z,8.07
2023-10-11T23:57:37.515Z,9.18
